createdAt,value
2018-09-20T00:00:17.903Z,66.96
2018-09-20T00:02:53.821Z,66.93
2018-09-20T00:05:29.619Z,67.71
2018-09-20T00:08:05.400Z,69.05
2018-09-20T00:10:41.298Z,70.95
2018-09-20T00:13:20.414Z,72.30
2018-09-20T00:15:58.049Z,71.08
2018-09-20T00:18:33.886Z,70.84
2018-09-20T00:21:09.638Z,70.98
2018-09-20T00:23:45.253Z,71.66
2018-09-20T00:26:21.162Z,72.71
2018-09-20T00:28:57.158Z,73.68
2018-09-20T00:31:32.906Z,74.62
2018-09-20T00:34:08.585Z,75.08
2018-09-20T00:36:44.243Z,75.18
2018-09-20T00:39:19.950Z,74.89
2018-09-20T00:41:55.724Z,73.22
2018-09-20T00:44:31.778Z,73.79
2018-09-20T00:47:07.583Z,74.17
2018-09-20T00:49:43.468Z,73.54
2018-09-20T00:52:19.399Z,74.49
2018-09-20T00:54:55.226Z,76.45
2018-09-20T00:57:30.806Z,77.51
2018-09-20T01:00:07.104Z,78.42
2018-09-20T01:02:43.069Z,78.32
2018-09-20T01:05:18.890Z,77.88
2018-09-20T01:07:54.714Z,77.58
2018-09-20T01:10:30.470Z,77.17
2018-09-20T01:13:06.109Z,77.37
2018-09-20T01:15:42.262Z,77.67
2018-09-20T01:18:18.027Z,77.65
2018-09-20T01:20:53.842Z,77.35
2018-09-20T01:23:29.597Z,76.57
2018-09-20T01:26:05.292Z,76.27
2018-09-20T01:28:41.150Z,75.15
2018-09-20T01:31:17.008Z,74.88
2018-09-20T01:33:53.898Z,74.98
2018-09-20T01:36:29.717Z,75.23
2018-09-20T01:39:10.417Z,75.75
2018-09-20T01:41:45.989Z,76.22
2018-09-20T01:44:21.615Z,75.58
2018-09-20T01:46:57.297Z,74.36
2018-09-20T01:49:32.920Z,74.42
2018-09-20T01:52:08.684Z,73.55
2018-09-20T01:54:44.582Z,74.48
2018-09-20T01:57:20.280Z,74.71
2018-09-20T01:59:55.897Z,75.89
2018-09-20T02:02:31.463Z,77.18
2018-09-20T02:05:08.082Z,76.68
2018-09-20T02:07:43.753Z,77.06
2018-09-20T02:10:20.584Z,76.54
2018-09-20T02:12:56.363Z,77.12
2018-09-20T02:15:32.494Z,76.08
2018-09-20T02:18:08.314Z,75.03
2018-09-20T02:20:44.283Z,75.24
2018-09-20T02:23:19.980Z,76.58
2018-09-20T02:25:55.864Z,74.69
2018-09-20T02:28:31.701Z,76.38
2018-09-20T02:31:07.575Z,79.05
2018-09-20T02:33:43.514Z,80.23
2018-09-20T02:36:19.269Z,80.65
2018-09-20T02:38:55.232Z,80.51
2018-09-20T02:41:31.085Z,79.95
2018-09-20T02:44:06.852Z,77.83
2018-09-20T02:46:42.824Z,77.78
2018-09-20T02:49:18.671Z,77.84
2018-09-20T02:51:54.424Z,77.98
2018-09-20T02:54:30.176Z,78.46
2018-09-20T02:57:06.059Z,78.21
2018-09-20T02:59:41.663Z,77.32
2018-09-20T03:02:17.517Z,77.21
2018-09-20T03:04:53.079Z,76.61
2018-09-20T03:07:28.997Z,74.72
2018-09-20T03:10:05.106Z,74.99
2018-09-20T03:12:40.803Z,73.63
2018-09-20T03:15:16.521Z,73.96
2018-09-20T03:17:52.438Z,74.54
2018-09-20T03:20:28.179Z,73.69
2018-09-20T03:23:04.045Z,76.31
2018-09-20T03:25:40.219Z,77.63
2018-09-20T03:28:16.020Z,77.88
2018-09-20T03:30:51.867Z,78.01
2018-09-20T03:33:27.645Z,79.10
2018-09-20T03:36:03.479Z,80.39
2018-09-20T03:38:39.367Z,79.66
2018-09-20T03:41:15.617Z,80.03
2018-09-20T03:43:51.238Z,79.33
2018-09-20T03:46:26.955Z,80.66
2018-09-20T03:49:02.865Z,82.89
2018-09-20T03:51:38.725Z,83.04
2018-09-20T03:54:14.593Z,83.12
2018-09-20T03:56:50.202Z,83.27
2018-09-20T03:59:26.881Z,82.23
2018-09-20T04:02:02.594Z,81.12
2018-09-20T04:04:38.304Z,81.69
2018-09-20T04:07:13.962Z,82.60
2018-09-20T04:09:49.747Z,83.93
2018-09-20T04:12:25.975Z,84.23
2018-09-20T04:15:02.533Z,83.56
2018-09-20T04:17:38.929Z,82.84
2018-09-20T04:20:14.902Z,82.51
2018-09-20T04:22:50.987Z,83.47
2018-09-20T04:25:26.890Z,82.78
2018-09-20T04:28:02.695Z,82.51
2018-09-20T04:30:38.418Z,82.26
2018-09-20T04:33:14.259Z,80.93
2018-09-20T04:35:50.100Z,79.76
2018-09-20T04:38:25.881Z,80.09
2018-09-20T04:41:01.683Z,79.10
2018-09-20T04:43:37.418Z,81.10
2018-09-20T04:46:13.121Z,81.56
2018-09-20T04:48:48.945Z,81.30
2018-09-20T04:51:24.840Z,81.29
2018-09-20T04:54:00.729Z,79.45
2018-09-20T04:56:36.381Z,76.65
2018-09-20T04:59:12.270Z,76.56
2018-09-20T05:01:48.194Z,76.60
2018-09-20T05:04:24.122Z,75.19
2018-09-20T05:06:59.902Z,73.63
2018-09-20T05:09:35.657Z,74.31
2018-09-20T05:12:11.723Z,72.39
2018-09-20T05:14:47.615Z,72.18
2018-09-20T05:17:23.445Z,71.20
2018-09-20T05:19:59.309Z,71.48
2018-09-20T05:22:34.963Z,71.16
2018-09-20T05:25:14.073Z,70.04
2018-09-20T05:27:49.921Z,68.78
2018-09-20T05:30:25.764Z,67.66
2018-09-20T05:33:01.901Z,67.80
2018-09-20T05:35:37.678Z,67.06
2018-09-20T05:38:13.507Z,67.06
2018-09-20T05:40:51.897Z,67.65
2018-09-20T05:43:27.863Z,66.13
2018-09-20T05:46:03.880Z,65.82
2018-09-20T05:48:39.521Z,64.84
2018-09-20T05:51:15.303Z,65.98
2018-09-20T05:53:51.268Z,66.04
2018-09-20T05:56:27.023Z,63.52
2018-09-20T05:59:02.816Z,62.65
2018-09-20T06:01:38.622Z,61.91
2018-09-20T06:04:14.437Z,62.51
2018-09-20T06:06:50.680Z,63.24
2018-09-20T06:09:26.508Z,63.41
2018-09-20T06:12:02.717Z,63.82
2018-09-20T06:14:38.740Z,62.97
2018-09-20T06:17:14.773Z,63.93
2018-09-20T06:19:53.780Z,63.12
2018-09-20T06:22:29.581Z,61.94
2018-09-20T06:25:06.119Z,62.08
2018-09-20T06:27:41.855Z,60.98
2018-09-20T06:30:17.842Z,57.87
2018-09-20T06:32:53.601Z,57.17
2018-09-20T06:35:30.105Z,56.36
2018-09-20T06:38:05.831Z,55.76
2018-09-20T06:40:41.684Z,54.71
2018-09-20T06:43:17.469Z,54.81
2018-09-20T06:45:53.843Z,54.69
2018-09-20T06:48:29.694Z,53.96
2018-09-20T06:51:05.494Z,53.10
2018-09-20T06:53:41.178Z,52.17
2018-09-20T06:57:41.197Z,52.01
2018-09-20T07:00:17.434Z,50.83
2018-09-20T07:02:53.325Z,49.69
2018-09-20T07:05:29.279Z,49.46
2018-09-20T07:08:05.210Z,50.14
2018-09-20T07:10:41.065Z,50.22
2018-09-20T07:13:16.917Z,49.37
2018-09-20T07:15:52.743Z,49.66
2018-09-20T07:18:28.676Z,49.75
2018-09-20T07:21:04.974Z,49.17
2018-09-20T07:23:40.618Z,48.86
2018-09-20T07:26:17.128Z,48.36
2018-09-20T07:28:52.900Z,47.98
2018-09-20T07:31:28.688Z,46.88
2018-09-20T07:34:04.624Z,47.07
2018-09-20T07:36:40.439Z,47.58
2018-09-20T07:39:16.141Z,48.66
2018-09-20T07:41:52.782Z,48.11
2018-09-20T07:44:28.577Z,48.21
2018-09-20T07:47:04.176Z,46.92
2018-09-20T07:49:40.176Z,46.87
2018-09-20T07:52:15.897Z,46.01
2018-09-20T07:54:51.653Z,45.36
2018-09-20T07:57:29.644Z,45.75
2018-09-20T08:00:06.419Z,44.45
2018-09-20T08:02:42.229Z,45.07
2018-09-20T08:05:18.092Z,44.16
2018-09-20T08:07:54.386Z,43.97
2018-09-20T08:10:30.255Z,42.35
2018-09-20T08:13:05.973Z,42.95
2018-09-20T08:15:41.698Z,43.42
2018-09-20T08:18:17.382Z,43.75
2018-09-20T08:20:53.185Z,41.47
2018-09-20T08:23:28.946Z,41.89
2018-09-20T08:26:04.658Z,41.14
2018-09-20T08:28:40.364Z,38.92
2018-09-20T08:31:16.548Z,38.07
2018-09-20T08:33:55.457Z,37.57
2018-09-20T08:36:31.304Z,38.13
2018-09-20T08:39:11.325Z,38.11
2018-09-20T08:41:47.097Z,38.77
2018-09-20T08:44:30.369Z,37.21
2018-09-20T08:47:06.105Z,36.74
2018-09-20T08:49:41.867Z,36.03
2018-09-20T08:52:17.696Z,36.24
2018-09-20T08:54:53.673Z,34.95
2018-09-20T08:57:32.245Z,35.09
2018-09-20T09:00:08.412Z,35.23
2018-09-20T09:02:44.281Z,35.62
2018-09-20T09:05:20.586Z,34.76
2018-09-20T09:07:56.347Z,34.40
2018-09-20T09:10:32.393Z,34.79
2018-09-20T09:13:08.322Z,33.34
2018-09-20T09:15:44.172Z,32.60
2018-09-20T09:18:19.949Z,31.48
2018-09-20T09:20:55.816Z,31.29
2018-09-20T09:23:31.557Z,31.02
2018-09-20T09:26:07.311Z,30.51
2018-09-20T09:28:43.019Z,30.03
2018-09-20T09:31:19.038Z,31.00
2018-09-20T09:33:54.784Z,30.50
2018-09-20T09:36:30.653Z,30.50
2018-09-20T09:39:09.438Z,29.50
2018-09-20T09:41:45.437Z,29.22
2018-09-20T09:44:21.164Z,28.63
2018-09-20T09:46:57.006Z,28.87
2018-09-20T09:49:32.714Z,27.44
2018-09-20T09:52:08.537Z,27.35
2018-09-20T09:54:44.388Z,26.93
2018-09-20T09:57:20.293Z,26.12
2018-09-20T09:59:55.928Z,26.62
2018-09-20T10:02:32.176Z,27.06
2018-09-20T10:05:08.162Z,25.82
2018-09-20T10:07:44.015Z,26.17
2018-09-20T10:10:19.686Z,25.24
2018-09-20T10:12:55.475Z,25.53
2018-09-20T10:15:31.186Z,25.05
2018-09-20T10:18:07.026Z,25.93
2018-09-20T10:20:42.788Z,25.00
2018-09-20T10:23:18.710Z,23.97
2018-09-20T10:25:55.514Z,23.32
2018-09-20T10:28:31.279Z,23.95
2018-09-20T10:31:07.106Z,24.15
2018-09-20T10:33:42.956Z,25.16
2018-09-20T10:36:18.762Z,22.92
2018-09-20T10:38:49.551Z,23.71
2018-09-20T10:41:20.595Z,22.70
2018-09-20T10:43:51.435Z,21.44
2018-09-20T10:46:22.911Z,22.22
2018-09-20T10:48:53.889Z,22.81
2018-09-20T10:51:24.661Z,22.05
2018-09-20T10:53:55.448Z,22.38
2018-09-20T10:56:26.202Z,21.90
2018-09-20T10:58:57.008Z,22.51
2018-09-20T11:01:27.767Z,19.92
2018-09-20T11:03:58.677Z,19.41
2018-09-20T11:06:29.426Z,19.28
2018-09-20T11:09:00.324Z,19.13
2018-09-20T11:11:31.092Z,19.18
2018-09-20T11:14:02.010Z,19.73
2018-09-20T11:16:32.758Z,18.96
2018-09-20T11:19:03.541Z,14.11
2018-09-20T11:21:34.305Z,12.87
2018-09-20T11:24:05.586Z,12.98
2018-09-20T11:26:36.329Z,13.43
2018-09-20T11:29:07.526Z,14.97
2018-09-20T11:31:38.329Z,14.56
2018-09-20T11:34:09.221Z,13.21
2018-09-20T11:36:40.543Z,13.76
2018-09-20T11:39:13.757Z,16.62
2018-09-20T11:41:44.506Z,17.51
2018-09-20T11:44:15.340Z,17.32
2018-09-20T11:46:46.196Z,16.71
2018-09-20T11:49:17.194Z,16.43
2018-09-20T11:51:48.293Z,16.07
2018-09-20T11:54:19.065Z,15.53
2018-09-20T11:56:49.813Z,15.58
2018-09-20T11:59:20.625Z,15.83
2018-09-20T12:01:51.388Z,13.24
2018-09-20T12:04:22.242Z,13.38
2018-09-20T12:06:53.002Z,14.62
2018-09-20T12:09:23.775Z,15.59
2018-09-20T12:11:54.548Z,15.68
2018-09-20T12:14:25.440Z,15.68
2018-09-20T12:16:56.621Z,15.74
2018-09-20T12:19:27.425Z,15.07
2018-09-20T12:21:58.162Z,15.23
2018-09-20T12:24:29.897Z,16.11
2018-09-20T12:27:00.645Z,15.62
2018-09-20T12:29:31.494Z,16.07
2018-09-20T12:32:02.249Z,15.30
2018-09-20T12:34:33.061Z,15.53
2018-09-20T12:37:03.893Z,15.75
2018-09-20T12:39:34.725Z,14.74
2018-09-20T12:42:05.491Z,15.85
2018-09-20T12:44:37.421Z,14.34
2018-09-20T12:47:08.214Z,14.96
2018-09-20T12:49:39.528Z,15.35
2018-09-20T12:52:10.299Z,14.42
2018-09-20T12:54:41.167Z,14.52
2018-09-20T12:57:11.989Z,14.30
2018-09-20T12:59:42.854Z,14.51
2018-09-20T13:02:13.685Z,14.79
2018-09-20T13:04:44.745Z,14.88
2018-09-20T13:07:15.618Z,14.88
2018-09-20T13:09:46.934Z,15.48
2018-09-20T13:12:17.913Z,15.24
2018-09-20T13:14:48.771Z,15.87
2018-09-20T13:17:19.526Z,16.81
2018-09-20T13:19:50.325Z,16.03
2018-09-20T13:22:21.104Z,16.79
2018-09-20T13:24:51.895Z,16.50
2018-09-20T13:27:22.651Z,15.38
2018-09-20T13:29:53.498Z,14.88
2018-09-20T13:32:24.240Z,15.26
2018-09-20T13:34:55.003Z,14.30
2018-09-20T13:37:25.779Z,14.25
2018-09-20T13:39:56.604Z,14.07
2018-09-20T13:42:27.968Z,13.70
2018-09-20T13:47:34.585Z,15.39
2018-09-20T13:50:05.902Z,14.79
2018-09-20T13:52:37.102Z,14.12
2018-09-20T13:55:07.945Z,14.99
2018-09-20T13:57:39.168Z,14.40
2018-09-20T14:00:10.248Z,14.74
2018-09-20T14:02:41.028Z,14.56
2018-09-20T14:05:11.793Z,15.02
2018-09-20T14:07:42.604Z,14.43
2018-09-20T14:10:13.411Z,15.04
2018-09-20T14:12:44.212Z,15.46
2018-09-20T14:15:14.938Z,17.14
2018-09-20T14:17:45.739Z,17.07
2018-09-20T14:20:16.529Z,16.22
2018-09-20T14:22:47.297Z,15.31
2018-09-20T14:25:18.100Z,15.67
2018-09-20T14:27:48.939Z,16.82
2018-09-20T14:30:19.726Z,17.09
2018-09-20T14:32:50.658Z,17.61
2018-09-20T14:35:21.426Z,17.39
2018-09-20T14:37:52.232Z,18.58
2018-09-20T14:40:23.025Z,19.50
2018-09-20T14:42:53.793Z,21.35
2018-09-20T14:45:25.706Z,22.51
2018-09-20T14:47:56.511Z,24.15
2018-09-20T14:50:27.428Z,25.47
2018-09-20T14:52:58.230Z,26.58
2018-09-20T14:55:29.459Z,26.64
2018-09-20T14:58:00.275Z,26.89
2018-09-20T15:00:31.026Z,27.50
2018-09-20T15:03:01.852Z,28.06
2018-09-20T15:05:32.649Z,29.23
2018-09-20T15:08:03.460Z,29.33
2018-09-20T15:10:34.442Z,29.17
2018-09-20T15:13:05.248Z,29.46
2018-09-20T15:15:36.018Z,29.92
2018-09-20T15:18:06.832Z,30.83
2018-09-20T15:20:37.606Z,30.91
2018-09-20T15:23:08.424Z,30.76
2018-09-20T15:25:39.197Z,31.34
2018-09-20T15:28:10.033Z,31.75
2018-09-20T15:30:40.822Z,31.04
2018-09-20T15:33:11.614Z,31.69
2018-09-20T15:35:42.357Z,32.46
2018-09-20T15:38:13.151Z,29.68
2018-09-20T15:40:43.919Z,28.73
2018-09-20T15:43:14.691Z,28.31
2018-09-20T15:45:45.470Z,28.24
2018-09-20T15:48:16.268Z,27.58
2018-09-20T15:50:47.141Z,28.29
2018-09-20T15:53:17.921Z,27.49
2018-09-20T15:55:48.682Z,28.32
2018-09-20T15:58:19.453Z,28.22
2018-09-20T16:00:50.257Z,28.67
2018-09-20T16:03:21.214Z,28.89
2018-09-20T16:05:58.189Z,29.56
2018-09-20T16:09:54.082Z,28.51
2018-09-20T16:12:25.297Z,28.78
2018-09-20T16:14:56.123Z,28.81
2018-09-20T16:17:26.873Z,29.18
2018-09-20T16:19:57.671Z,30.32
2018-09-20T16:22:28.446Z,30.43
2018-09-20T16:27:35.127Z,31.43
2018-09-20T16:30:23.972Z,32.06
2018-09-20T16:35:16.004Z,30.19
2018-09-20T16:39:58.254Z,30.76
2018-09-20T16:42:34.222Z,31.36
2018-09-20T16:45:05.514Z,32.11
2018-09-20T16:47:41.945Z,32.30
2018-09-20T16:50:12.797Z,31.93
2018-09-20T16:52:46.244Z,32.13
2018-09-20T16:55:17.050Z,32.92
2018-09-20T16:57:47.800Z,33.00
2018-09-20T17:01:06.069Z,33.67
2018-09-20T17:03:36.884Z,33.99
2018-09-20T17:06:08.445Z,34.96
2018-09-20T17:08:39.201Z,35.15
2018-09-20T17:11:10.001Z,34.96
2018-09-20T17:13:40.794Z,35.42
2018-09-20T17:16:11.679Z,35.75
2018-09-20T17:18:42.685Z,35.43
2018-09-20T17:21:13.734Z,35.48
2018-09-20T17:23:44.511Z,36.09
2018-09-20T17:26:15.530Z,36.18
2018-09-20T17:28:46.299Z,36.38
2018-09-20T17:31:17.112Z,37.57
2018-09-20T17:33:48.125Z,37.80
2018-09-20T17:36:20.116Z,38.83
2018-09-20T17:38:54.507Z,39.21
2018-09-20T17:41:28.290Z,38.15
2018-09-20T17:44:01.919Z,37.80
2018-09-20T17:46:32.720Z,38.24
2018-09-20T17:49:03.514Z,38.62
2018-09-20T17:51:35.128Z,38.81
2018-09-20T17:54:06.593Z,38.92
2018-09-20T17:56:38.343Z,39.78
2018-09-20T17:59:09.104Z,40.68
2018-09-20T18:01:39.909Z,40.13
2018-09-20T18:04:10.671Z,42.01
2018-09-20T18:06:41.500Z,42.04
2018-09-20T18:09:12.224Z,41.53
2018-09-20T18:11:43.435Z,41.41
2018-09-20T18:14:14.212Z,41.80
2018-09-20T18:16:45.030Z,41.73
2018-09-20T18:19:16.195Z,42.42
2018-09-20T18:21:47.608Z,42.71
2018-09-20T18:24:18.431Z,44.34
2018-09-20T18:26:49.499Z,44.23
2018-09-20T18:29:21.143Z,44.27
2018-09-20T18:31:51.978Z,44.01
2018-09-20T18:34:22.774Z,44.42
2018-09-20T18:36:53.792Z,44.60
2018-09-20T18:39:24.618Z,47.70
2018-09-20T18:41:56.154Z,47.19
2018-09-20T18:44:27.238Z,46.71
2018-09-20T18:46:58.053Z,46.71
2018-09-20T18:49:28.908Z,47.16
2018-09-20T18:51:59.814Z,47.87
2018-09-20T18:54:30.653Z,47.81
2018-09-20T18:57:01.459Z,45.96
2018-09-20T18:59:32.253Z,47.46
2018-09-20T19:02:03.045Z,48.41
2018-09-20T19:04:33.801Z,49.15
2018-09-20T19:07:04.680Z,48.06
2018-09-20T19:09:41.673Z,48.63
2018-09-20T19:12:12.757Z,49.88
2018-09-20T19:14:44.231Z,48.71
2018-09-20T19:17:15.046Z,47.63
2018-09-20T19:19:46.029Z,46.43
2018-09-20T19:22:20.962Z,46.58
2018-09-20T19:24:55.179Z,46.69
2018-09-20T19:27:32.371Z,46.37
2018-09-20T19:30:10.517Z,48.18
2018-09-20T19:32:46.438Z,49.96
2018-09-20T19:35:21.802Z,50.34
2018-09-20T19:37:58.421Z,50.30
2018-09-20T19:40:34.124Z,49.66
2018-09-20T19:43:09.985Z,50.02
2018-09-20T19:45:45.816Z,50.06
2018-09-20T19:48:24.506Z,48.99
2018-09-20T19:51:06.584Z,49.66
2018-09-20T19:53:50.287Z,49.13
2018-09-20T19:56:23.051Z,50.12
2018-09-20T19:58:58.909Z,51.39
2018-09-20T20:01:34.614Z,52.60
2018-09-20T20:04:10.549Z,52.97
2018-09-20T20:06:46.243Z,51.97
2018-09-20T20:09:22.087Z,52.39
2018-09-20T20:11:57.941Z,53.59
2018-09-20T20:14:33.791Z,54.42
2018-09-20T20:17:09.586Z,55.73
2018-09-20T20:19:45.410Z,56.19
2018-09-20T20:22:21.394Z,57.16
2018-09-20T20:24:57.221Z,57.42
2018-09-20T20:27:33.334Z,55.29
2018-09-20T20:30:09.263Z,55.24
2018-09-20T20:32:48.543Z,56.90
2018-09-20T20:35:24.451Z,57.63
2018-09-20T20:38:00.350Z,58.86
2018-09-20T20:40:36.620Z,62.73
2018-09-20T20:43:12.337Z,56.70
2018-09-20T20:45:48.435Z,54.08
2018-09-20T20:48:24.109Z,52.76
2018-09-20T20:50:59.760Z,51.31
2018-09-20T20:53:35.631Z,51.54
2018-09-20T20:56:11.351Z,54.40
2018-09-20T20:58:47.243Z,54.63
2018-09-20T21:01:23.694Z,54.21
2018-09-20T21:03:59.454Z,54.99
2018-09-20T21:06:35.297Z,57.15
2018-09-20T21:09:11.287Z,57.89
2018-09-20T21:11:47.609Z,58.02
2018-09-20T21:14:23.442Z,60.76
2018-09-20T21:16:59.448Z,58.64
2018-09-20T21:19:35.197Z,60.20
2018-09-20T21:22:11.064Z,59.42
2018-09-20T21:24:46.901Z,59.60
2018-09-20T21:27:22.879Z,59.26
2018-09-20T21:29:59.121Z,58.76
2018-09-20T21:32:35.166Z,58.73
2018-09-20T21:35:10.777Z,57.74
2018-09-20T21:37:46.451Z,58.15
2018-09-20T21:40:22.120Z,57.60
2018-09-20T21:42:57.865Z,59.09
2018-09-20T21:45:33.727Z,59.83
2018-09-20T21:48:09.508Z,57.25
2018-09-20T21:50:45.170Z,59.70
2018-09-20T21:53:21.321Z,58.79
2018-09-20T21:55:57.037Z,59.06
2018-09-20T21:58:32.896Z,58.31
2018-09-20T22:01:13.168Z,58.79
2018-09-20T22:03:48.865Z,58.80
2018-09-20T22:13:29.345Z,62.19
2018-09-20T22:16:05.225Z,61.65
2018-09-20T22:20:05.192Z,61.79
2018-09-20T22:22:41.274Z,60.90
2018-09-20T22:25:17.141Z,60.24
2018-09-20T22:27:53.061Z,60.11
2018-09-20T22:30:29.293Z,61.96
2018-09-20T22:33:05.486Z,62.29
2018-09-20T22:35:42.463Z,61.87
2018-09-20T22:38:19.019Z,63.12
2018-09-20T22:40:55.932Z,62.04
2018-09-20T22:43:32.667Z,61.95
2018-09-20T22:46:09.548Z,62.23
2018-09-20T22:48:46.593Z,63.11
2018-09-20T22:51:22.794Z,64.39
2018-09-20T22:53:59.138Z,64.79
2018-09-20T22:56:35.609Z,65.98
2018-09-20T22:59:11.782Z,66.52
2018-09-20T23:03:11.763Z,66.63
2018-09-20T23:05:47.597Z,66.01
2018-09-20T23:08:23.466Z,66.62
2018-09-20T23:10:59.026Z,66.39
2018-09-20T23:13:34.664Z,66.13
2018-09-20T23:16:10.554Z,67.36
2018-09-20T23:18:46.784Z,68.37
2018-09-20T23:21:22.591Z,69.56
2018-09-20T23:23:58.432Z,69.56
2018-09-20T23:26:34.126Z,68.71
2018-09-20T23:29:10.014Z,68.68
2018-09-20T23:31:45.732Z,68.07
2018-09-20T23:34:21.612Z,68.13
2018-09-20T23:36:57.427Z,68.43
2018-09-20T23:39:33.295Z,67.60
2018-09-20T23:42:09.013Z,67.26
2018-09-20T23:44:44.729Z,67.72
2018-09-20T23:47:20.559Z,66.27
2018-09-20T23:49:56.474Z,66.97
2018-09-20T23:52:32.380Z,67.14
2018-09-20T23:55:08.232Z,66.49
2018-09-20T23:57:43.953Z,66.40
